CYJT

Stephenville Airport

Stephenville, Canada
TAF CYJT 251740Z 2518/2618 25012G22KT P6SM FEW080 SCT200 FM260000 21007KT P6SM BKN140 FM260700 VRB03KT P6SM SCT040 BKN100 BECMG 2608/2610 11008KT BECMG 2613/2615 15012KT RMK NXT FCST BY 260000Z
Issued Valid From Valid To
Apr-25 @ 17:40 UTC
(38 minutes ago)
Apr-25 @ 18:00 UTC
(18 minutes ago)
Apr-26 @ 18:00 UTC
(in 24 hours)
Apr-25 @ 18:00 to Apr-26 @ 00:00
TAF CYJT 251740Z 2518/2618 25012G22KT P6SM FEW080 SCT200
Wind Visibility Clouds
250° at 12 knots
 Gusting to 22 knots
Greater than 6 miles
  • Few at 8,000' AGL
  • Scattered at 20,000' AGL
From Apr-26 @ 00:00 to Apr-26 @ 07:00
FM260000 21007KT P6SM BKN140
Wind Visibility Clouds
210° at 7 knots Greater than 6 miles
  • Broken at 14,000' AGL
From Apr-26 @ 07:00 to Apr-26 @ 08:00
FM260700 VRB03KT P6SM SCT040 BKN100
Wind Visibility Clouds
Variable at 3 knots Greater than 6 miles
  • Scattered at 4,000' AGL
  • Broken at 10,000' AGL
Becoming Apr-26 @ 08:00 to Apr-26 @ 13:00
BECMG 2608/2610 11008KT
Wind Visibility Clouds
110° at 8 knots Greater than 6 miles
  • Scattered at 4,000' AGL
  • Broken at 10,000' AGL
Becoming Apr-26 @ 13:00 to Apr-26 @ 18:00
BECMG 2613/2615 15012KT RMK NXT FCST BY 260000Z
Wind Visibility Clouds
150° at 12 knots Greater than 6 miles
  • Scattered at 4,000' AGL
  • Broken at 10,000' AGL
TAF CYJT 251740Z 2518/2618 25012G22KT P6SM FEW080 SCT200 FM260000 21007KT P6SM BKN140 FM260700 VRB03KT P6SM SCT040 BKN100 BECMG 2608/2610 11008KT BECMG 2613/2615 15012KT RMK NXT FCST BY 260000Z
Issued Apr-25 @ 17:40 UTC
(38 minutes ago)
Valid From Apr-25 @ 18:00 UTC
(18 minutes ago)
Valid To Apr-26 @ 18:00 UTC
(in 24 hours)
Apr-25 @ 18:00 - Apr-26 @ 00:00
Wind Visibility
250° at 12 knots
 Gusting to 22 knots
Greater than 6 miles
Clouds
  • Few at 8,000' AGL
  • Scattered at 20,000' AGL
From Apr-26 @ 00:00 - Apr-26 @ 07:00
Wind Visibility
210° at 7 knots Greater than 6 miles
Clouds
  • Broken at 14,000' AGL
From Apr-26 @ 07:00 - Apr-26 @ 08:00
Wind Visibility
Variable at 3 knots Greater than 6 miles
Clouds
  • Scattered at 4,000' AGL
  • Broken at 10,000' AGL
Becoming Apr-26 @ 08:00 - Apr-26 @ 13:00
Wind Visibility
110° at 8 knots Greater than 6 miles
Clouds
  • Scattered at 4,000' AGL
  • Broken at 10,000' AGL
Becoming Apr-26 @ 13:00 - Apr-26 @ 18:00
Wind Visibility
150° at 12 knots Greater than 6 miles
Clouds
  • Scattered at 4,000' AGL
  • Broken at 10,000' AGL